»·PEaware :: DAL587 KSLC-KDEN

DAL587 :: KSLC-KDEN

FLIGHT INFORMATION

Flight Status: Arrived
Operator:
Delta Air Lines
More flights by this operator :: More flights under this callsign
Pilot: Anonymous 17611 (17611)
Aircraft: BOEING 737-800
(B738)
More flights by this aircraft type
Origin: KSLC Salt Lake City Intl
United States
Destination: KDEN Denver Intl
United States
More flights between these airports :: More routes between these airports
Route: +NSIGN5 CHE FRNCH3
File this flight plan on PilotEdge
Remarks:
Altitude:
(Current/Filed)
32,000ft
Speed:
(Current/Filed)
461kts
Departed: 10-Jan-18 04:11 PM
Arrived: 10-Jan-18 05:15 PM
Distance/Time
Traveled:
339nm/1:04
Distance/Time
To Go:
Arrived

Flight Plot

Page will automatically refresh every two minutes.

Flight plan parsing failed; only flown route is shown


Map Options




Map Legend


Flown Route
Filed Route
Departure Airport
Arrival Airport
Navaid (VOR, NDB)
Fix

Horizontal Profiles

Position Reports

Time Latitude Longitude Heading Altitude Ground
Speed
10-Jan-18 15:57 40.788529 -111.980851 282 4223ft 0kts
10-Jan-18 15:58 40.788529 -111.980851 282 4223ft 0kts
10-Jan-18 15:59 40.788529 -111.980851 282 4223ft 0kts
10-Jan-18 16:00 40.788529 -111.980851 282 4223ft 0kts
10-Jan-18 16:01 40.788529 -111.980851 282 4223ft 0kts
10-Jan-18 16:02 40.788529 -111.980851 282 4223ft 0kts
10-Jan-18 16:03 40.788529 -111.980851 282 4223ft 0kts
10-Jan-18 16:04 40.788529 -111.980851 282 4223ft 0kts
10-Jan-18 16:05 40.788529 -111.980851 282 4223ft 0kts
10-Jan-18 16:06 40.788529 -111.980851 282 4223ft 0kts
10-Jan-18 16:07 40.788498 -111.980663 281 4223ft 2kts
10-Jan-18 16:08 40.788125 -111.980272 13 4224ft 0kts
10-Jan-18 16:09 40.788058 -111.980300 15 4224ft 0kts
10-Jan-18 16:10 40.788058 -111.980300 15 4224ft 0kts
10-Jan-18 16:11 40.789772 -111.979076 45 4223ft 13kts
10-Jan-18 16:12 40.787624 -111.976821 173 4223ft 17kts
10-Jan-18 16:13 40.782082 -111.976171 174 4227ft 25kts
10-Jan-18 16:14 40.776436 -111.975519 174 4227ft 12kts
10-Jan-18 16:15 40.775558 -111.974614 89 4227ft 0kts
10-Jan-18 16:16 40.775990 -111.973283 1 4227ft 10kts
10-Jan-18 16:17 40.804423 -111.976456 352 4837ft 179kts
10-Jan-18 16:18 40.859121 -111.982941 351 6976ft 225kts
10-Jan-18 16:19 40.919203 -111.991740 350 9558ft 245kts
10-Jan-18 16:20 40.986786 -112.001466 348 12614ft 250kts
10-Jan-18 16:21 41.058169 -112.011801 353 14879ft 283kts
10-Jan-18 16:22 41.124686 -111.956738 40 17128ft 332kts
10-Jan-18 16:23 41.138352 -111.832888 96 19549ft 373kts
10-Jan-18 16:24 41.072973 -111.732013 153 21784ft 385kts
10-Jan-18 16:25 40.978796 -111.658776 151 23887ft 403kts
10-Jan-18 16:26 40.918037 -111.539758 89 25151ft 431kts
10-Jan-18 16:27 40.907107 -111.378743 94 27298ft 446kts
10-Jan-18 16:28 40.887608 -111.225551 95 29439ft 446kts
10-Jan-18 16:29 40.867086 -111.064038 96 31409ft 445kts
10-Jan-18 16:30 40.846477 -110.900110 99 31913ft 473kts
10-Jan-18 16:31 40.824408 -110.722768 99 32870ft 496kts
10-Jan-18 16:32 40.802123 -110.541194 98 32896ft 504kts
10-Jan-18 16:33 40.780242 -110.360635 98 32902ft 503kts
10-Jan-18 16:34 40.758749 -110.180743 99 32872ft 503kts
10-Jan-18 16:35 40.739144 -109.998011 96 32810ft 504kts
10-Jan-18 16:36 40.722573 -109.815074 96 32771ft 503kts
10-Jan-18 16:37 40.705935 -109.631747 96 32774ft 503kts
10-Jan-18 16:38 40.689621 -109.448940 96 32775ft 503kts
10-Jan-18 16:39 40.673808 -109.267908 96 32769ft 504kts
10-Jan-18 16:40 40.658101 -109.085198 97 32770ft 502kts
10-Jan-18 16:41 40.642837 -108.904521 99 32772ft 494kts
10-Jan-18 16:42 40.627936 -108.724870 98 32773ft 495kts
10-Jan-18 16:43 40.613310 -108.544894 98 32789ft 495kts
10-Jan-18 16:44 40.598934 -108.365062 98 32793ft 496kts
10-Jan-18 16:45 40.585981 -108.198995 98 32790ft 495kts
10-Jan-18 16:46 40.572127 -108.018637 98 32781ft 495kts
10-Jan-18 16:47 40.558636 -107.839434 98 32776ft 495kts
10-Jan-18 16:48 40.545198 -107.657085 96 32819ft 506kts
10-Jan-18 16:49 40.531927 -107.472949 96 32822ft 505kts
10-Jan-18 16:50 40.519438 -107.293412 95 32809ft 505kts
10-Jan-18 16:51 40.508787 -107.109063 96 32812ft 506kts
10-Jan-18 16:52 40.498176 -106.926015 97 32807ft 500kts
10-Jan-18 16:53 40.488080 -106.747661 97 32806ft 491kts
10-Jan-18 16:54 40.478352 -106.570804 96 32812ft 492kts
10-Jan-18 16:55 40.469055 -106.396780 96 32812ft 492kts
10-Jan-18 16:56 40.459318 -106.227424 98 32691ft 435kts
10-Jan-18 16:57 40.449884 -106.076604 97 30690ft 415kts
10-Jan-18 16:58 40.438593 -105.951580 104 28954ft 418kts
10-Jan-18 16:59 40.410945 -105.777853 103 26538ft 422kts
10-Jan-18 17:00 40.387329 -105.628019 103 24441ft 418kts
10-Jan-18 17:01 40.368379 -105.509799 102 22738ft 378kts
10-Jan-18 17:02 40.314708 -105.370728 132 20429ft 373kts
10-Jan-18 17:03 40.264368 -105.291789 132 18940ft 363kts
10-Jan-18 17:04 40.201052 -105.192663 131 17158ft 349kts
10-Jan-18 17:05 40.131171 -105.083676 131 16249ft 344kts
10-Jan-18 17:06 40.080032 -105.004099 130 15612ft 345kts
10-Jan-18 17:07 40.019024 -104.909120 129 14842ft 345kts
10-Jan-18 17:08 39.955550 -104.817617 154 14182ft 341kts
10-Jan-18 17:09 39.866566 -104.806793 184 12412ft 340kts
10-Jan-18 17:10 39.778159 -104.809200 183 10947ft 314kts
10-Jan-18 17:11 39.702316 -104.811203 183 9472ft 276kts
10-Jan-18 17:12 39.628953 -104.813170 182 8950ft 269kts
10-Jan-18 17:13 39.554638 -104.810975 153 8898ft 270kts
10-Jan-18 17:14 39.534636 -104.728573 69 8929ft 241kts
10-Jan-18 17:15 39.583983 -104.685353 20 7986ft 211kts
10-Jan-18 17:16 39.639991 -104.663427 359 8005ft 214kts
10-Jan-18 17:17 39.699016 -104.662283 359 7964ft 214kts
10-Jan-18 17:18 39.752317 -104.661557 358 6908ft 165kts
10-Jan-18 17:19 39.792963 -104.660875 359 6103ft 147kts
10-Jan-18 17:20 39.832187 -104.660373 0 5456ft 136kts
10-Jan-18 17:21 39.848257 -104.660850 336 5442ft 14kts
10-Jan-18 17:22 39.849130 -104.661486 330 5442ft 1kts

Navigation Log

Ident Type
Flight plan parsing failed, navigation log unavailable